createdAt,value
2018-12-23T00:00:16.879Z,23.97
2018-12-23T00:02:51.280Z,28.13
2018-12-23T00:05:25.573Z,22.67
2018-12-23T00:07:59.972Z,27.73
2018-12-23T00:10:34.506Z,18.07
2018-12-23T00:13:08.830Z,24.27
2018-12-23T00:15:43.280Z,18.97
2018-12-23T00:18:17.610Z,25.77
2018-12-23T00:20:52.135Z,26.13
2018-12-23T00:23:26.450Z,27.90
2018-12-23T00:26:01.025Z,22.57
2018-12-23T00:28:35.409Z,21.37
2018-12-23T00:31:09.860Z,24.93
2018-12-23T00:33:44.247Z,30.63
2018-12-23T00:36:18.582Z,24.07
2018-12-23T00:38:53.034Z,18.80
2018-12-23T00:41:27.386Z,30.83
2018-12-23T00:44:01.998Z,25.03
2018-12-23T00:46:37.734Z,22.57
2018-12-23T00:49:12.106Z,28.53
2018-12-23T00:51:46.737Z,27.47
2018-12-23T00:54:21.338Z,23.90
2018-12-23T00:56:55.559Z,29.43
2018-12-23T00:59:30.244Z,28.90
2018-12-23T01:02:05.421Z,27.90
2018-12-23T01:04:39.613Z,20.43
2018-12-23T01:07:15.333Z,21.30
2018-12-23T01:09:49.594Z,24.53
2018-12-23T01:12:23.940Z,21.73
2018-12-23T01:14:58.230Z,23.40
2018-12-23T01:17:32.637Z,23.80
2018-12-23T01:20:08.403Z,23.57
2018-12-23T01:22:42.760Z,27.20
2018-12-23T01:25:16.987Z,23.63
2018-12-23T01:27:52.510Z,32.20
2018-12-23T01:30:26.750Z,28.20
2018-12-23T01:33:00.913Z,19.60
2018-12-23T01:35:37.302Z,22.00
2018-12-23T01:38:12.052Z,26.33
2018-12-23T01:40:46.505Z,25.53
2018-12-23T01:43:20.972Z,27.30
2018-12-23T01:45:55.578Z,24.73
2018-12-23T01:48:30.417Z,25.83
2018-12-23T01:51:05.811Z,23.67
2018-12-23T01:53:40.111Z,26.80
2018-12-23T01:56:14.449Z,31.63
2018-12-23T01:58:48.825Z,30.03
2018-12-23T02:01:23.420Z,26.27
2018-12-23T02:03:58.062Z,27.20
2018-12-23T02:06:32.739Z,21.80
2018-12-23T02:09:07.227Z,23.60
2018-12-23T02:11:41.774Z,26.80
2018-12-23T02:14:16.426Z,24.73
2018-12-23T02:16:50.801Z,30.40
2018-12-23T02:19:25.129Z,25.33
2018-12-23T02:21:59.633Z,21.93
2018-12-23T02:24:33.909Z,23.93
2018-12-23T02:27:08.726Z,24.50
2018-12-23T02:29:43.274Z,31.00
2018-12-23T02:32:17.595Z,21.23
2018-12-23T02:34:51.783Z,21.90
2018-12-23T02:37:26.386Z,31.90
2018-12-23T02:40:00.653Z,30.27
2018-12-23T02:42:35.005Z,27.80
2018-12-23T02:45:09.612Z,28.40
2018-12-23T02:47:43.841Z,27.63
2018-12-23T02:50:18.101Z,29.00
2018-12-23T02:52:53.055Z,30.83
2018-12-23T02:55:27.718Z,37.90
2018-12-23T02:58:02.329Z,24.30
2018-12-23T03:00:36.630Z,28.47
2018-12-23T03:03:10.933Z,35.90
2018-12-23T03:05:45.362Z,27.70
2018-12-23T03:08:19.732Z,30.30
2018-12-23T03:10:54.102Z,30.00
2018-12-23T03:13:28.278Z,37.03
2018-12-23T03:16:02.765Z,33.20
2018-12-23T03:18:37.138Z,39.30
2018-12-23T03:21:11.602Z,34.17
2018-12-23T03:23:46.133Z,31.40
2018-12-23T03:26:27.586Z,34.93
2018-12-23T03:29:07.562Z,40.53
2018-12-23T03:31:42.153Z,39.00
2018-12-23T03:34:17.585Z,35.30
2018-12-23T03:36:51.979Z,36.00
2018-12-23T03:39:26.513Z,32.10
2018-12-23T03:42:01.043Z,32.70
2018-12-23T03:44:35.323Z,38.17
2018-12-23T03:47:09.561Z,33.60
2018-12-23T03:49:43.755Z,38.03
2018-12-23T03:52:18.074Z,44.77
2018-12-23T03:54:52.334Z,40.27
2018-12-23T03:57:26.709Z,37.17
2018-12-23T04:00:01.105Z,35.53
2018-12-23T04:02:35.443Z,36.90
2018-12-23T04:05:09.918Z,38.63
2018-12-23T04:07:44.344Z,44.77
2018-12-23T04:10:18.785Z,39.47
2018-12-23T04:12:53.102Z,41.80
2018-12-23T04:15:27.311Z,37.97
2018-12-23T04:18:01.643Z,34.93
2018-12-23T04:20:35.952Z,35.83
2018-12-23T04:23:10.350Z,43.70
2018-12-23T04:25:44.701Z,34.20
2018-12-23T04:28:19.137Z,45.53
2018-12-23T04:30:53.514Z,41.87
2018-12-23T04:33:27.906Z,57.97
2018-12-23T04:36:02.250Z,49.77
2018-12-23T04:38:37.466Z,40.87
2018-12-23T04:41:11.746Z,43.77
2018-12-23T04:43:45.965Z,46.53
2018-12-23T04:46:20.358Z,50.23
2018-12-23T04:48:54.829Z,49.23
2018-12-23T04:51:29.132Z,45.23
2018-12-23T04:54:03.750Z,43.47
2018-12-23T04:56:38.183Z,49.47
2018-12-23T04:59:12.794Z,55.23
2018-12-23T05:01:47.134Z,44.70
2018-12-23T05:04:21.323Z,58.47
2018-12-23T05:06:56.567Z,51.60
2018-12-23T05:09:30.805Z,49.47
2018-12-23T05:12:04.989Z,43.07
2018-12-23T05:14:39.370Z,45.50
2018-12-23T05:17:13.887Z,42.67
2018-12-23T05:19:48.254Z,50.43
2018-12-23T05:22:22.446Z,51.10
2018-12-23T05:24:56.690Z,53.77
2018-12-23T05:27:31.053Z,47.13
2018-12-23T05:30:05.578Z,51.47
2018-12-23T05:32:40.006Z,57.07
2018-12-23T05:35:14.258Z,53.37
2018-12-23T05:37:49.130Z,54.13
2018-12-23T05:40:23.411Z,56.13
2018-12-23T05:42:57.753Z,56.50
2018-12-23T05:45:32.112Z,54.77
2018-12-23T05:48:06.452Z,50.47
2018-12-23T05:50:40.722Z,49.23
2018-12-23T05:53:15.033Z,51.17
2018-12-23T05:55:49.199Z,44.83
2018-12-23T05:58:23.461Z,55.60
2018-12-23T06:00:57.716Z,53.10
2018-12-23T06:03:32.254Z,53.83
2018-12-23T06:06:06.608Z,47.40
2018-12-23T06:08:40.925Z,54.27
2018-12-23T06:11:15.423Z,56.00
2018-12-23T06:13:49.747Z,58.10
2018-12-23T06:16:23.941Z,50.10
2018-12-23T06:18:58.191Z,48.97
2018-12-23T06:21:32.559Z,53.17
2018-12-23T06:24:06.879Z,59.73
2018-12-23T06:26:41.283Z,49.77
2018-12-23T06:29:15.670Z,54.83
2018-12-23T06:31:50.009Z,44.87
2018-12-23T06:34:24.365Z,52.97
2018-12-23T06:36:58.710Z,43.93
2018-12-23T06:39:32.982Z,53.37
2018-12-23T06:42:07.295Z,44.97
2018-12-23T06:44:41.589Z,42.03
2018-12-23T06:47:15.837Z,41.80
2018-12-23T06:49:50.169Z,54.00
2018-12-23T06:52:25.545Z,42.23
2018-12-23T06:54:59.906Z,49.07
2018-12-23T06:57:34.342Z,45.23
2018-12-23T07:00:09.078Z,46.97
2018-12-23T07:02:43.353Z,49.77
2018-12-23T07:05:17.731Z,48.70
2018-12-23T07:07:52.058Z,45.63
2018-12-23T07:10:26.278Z,50.57
2018-12-23T07:13:00.574Z,46.73
2018-12-23T07:15:35.054Z,50.87
2018-12-23T07:18:09.407Z,54.57
2018-12-23T07:20:43.650Z,56.80
2018-12-23T07:23:18.386Z,55.27
2018-12-23T07:25:52.581Z,47.10
2018-12-23T07:28:26.860Z,56.43
2018-12-23T07:31:01.315Z,44.83
2018-12-23T07:33:35.804Z,57.23
2018-12-23T07:36:10.115Z,50.13
2018-12-23T07:38:44.641Z,42.43
2018-12-23T07:41:18.933Z,45.47
2018-12-23T07:43:53.269Z,50.13
2018-12-23T07:46:27.606Z,51.07
2018-12-23T07:49:01.886Z,57.97
2018-12-23T07:51:36.117Z,63.07
2018-12-23T07:54:10.432Z,47.67
2018-12-23T07:56:44.956Z,53.53
2018-12-23T07:59:19.246Z,50.90
2018-12-23T08:01:53.596Z,49.80
2018-12-23T08:04:27.925Z,45.97
2018-12-23T08:07:03.851Z,49.30
2018-12-23T08:09:38.121Z,45.03
2018-12-23T08:12:12.359Z,46.47
2018-12-23T08:14:46.790Z,45.93
2018-12-23T08:17:21.089Z,47.67
2018-12-23T08:19:55.264Z,42.43
2018-12-23T08:22:29.609Z,38.17
2018-12-23T08:25:04.193Z,38.57
2018-12-23T08:27:38.602Z,43.70
2018-12-23T08:30:13.857Z,38.60
2018-12-23T08:32:48.071Z,43.07
2018-12-23T08:35:22.281Z,40.63
2018-12-23T08:37:56.619Z,34.30
2018-12-23T08:40:31.089Z,43.20
2018-12-23T08:43:05.642Z,37.73
2018-12-23T08:45:39.962Z,38.20
2018-12-23T08:48:14.267Z,35.33
2018-12-23T08:50:48.581Z,33.73
2018-12-23T08:53:22.904Z,35.20
2018-12-23T08:55:57.206Z,38.63
2018-12-23T08:58:32.201Z,34.47
2018-12-23T09:01:06.641Z,47.10
2018-12-23T09:03:40.917Z,40.20
2018-12-23T09:06:15.245Z,41.70
2018-12-23T09:08:49.436Z,35.80
2018-12-23T09:11:23.853Z,40.57
2018-12-23T09:13:58.100Z,36.27
2018-12-23T09:16:32.523Z,42.47
2018-12-23T09:19:07.067Z,36.50
2018-12-23T09:21:41.389Z,40.03
2018-12-23T09:24:15.744Z,31.53
2018-12-23T09:26:50.118Z,32.40
2018-12-23T09:29:24.413Z,35.90
2018-12-23T09:31:58.700Z,37.57
2018-12-23T09:34:33.001Z,38.63
2018-12-23T09:37:07.326Z,49.33
2018-12-23T09:39:41.689Z,46.70
2018-12-23T09:42:16.198Z,43.53
2018-12-23T09:44:50.545Z,31.10
2018-12-23T09:47:26.647Z,36.97
2018-12-23T09:50:01.043Z,35.10
2018-12-23T09:52:35.369Z,32.03
2018-12-23T09:55:09.593Z,31.73
2018-12-23T09:57:43.810Z,30.53
2018-12-23T10:00:18.225Z,31.77
2018-12-23T10:02:56.643Z,40.87
2018-12-23T10:05:31.091Z,28.80
2018-12-23T10:08:10.038Z,30.27
2018-12-23T10:10:41.638Z,32.03
2018-12-23T10:13:15.837Z,32.67
2018-12-23T10:15:51.018Z,30.67
2018-12-23T10:18:25.309Z,32.60
2018-12-23T10:20:59.679Z,27.93
2018-12-23T10:23:34.253Z,34.53
2018-12-23T10:26:08.486Z,30.53
2018-12-23T10:28:42.806Z,27.90
2018-12-23T10:31:17.222Z,28.37
2018-12-23T10:33:51.554Z,33.30
2018-12-23T10:36:26.082Z,28.70
2018-12-23T10:39:00.394Z,31.00
2018-12-23T10:41:34.772Z,23.73
2018-12-23T10:44:09.127Z,25.73
2018-12-23T10:46:43.546Z,24.53
2018-12-23T10:49:17.954Z,27.77
2018-12-23T10:51:53.013Z,30.67
2018-12-23T10:54:27.313Z,27.10
2018-12-23T10:57:01.581Z,32.10
2018-12-23T10:59:36.994Z,30.20
2018-12-23T11:02:13.795Z,24.47
2018-12-23T11:04:47.613Z,27.30
2018-12-23T11:07:21.817Z,31.27
2018-12-23T11:10:02.045Z,26.47
2018-12-23T11:12:32.682Z,30.87
2018-12-23T11:15:07.526Z,22.63
2018-12-23T11:17:42.587Z,28.80
2018-12-23T11:20:16.945Z,23.03
2018-12-23T11:22:51.993Z,27.20
2018-12-23T11:25:26.322Z,25.87
2018-12-23T11:28:01.342Z,27.57
2018-12-23T11:30:35.858Z,29.73
2018-12-23T11:33:10.307Z,29.50
2018-12-23T11:35:44.577Z,29.13
2018-12-23T11:38:18.911Z,29.90
2018-12-23T11:40:53.226Z,28.07
2018-12-23T11:43:27.456Z,31.90
2018-12-23T11:46:01.891Z,32.93
2018-12-23T11:48:36.203Z,29.40
2018-12-23T11:51:10.890Z,31.00
2018-12-23T11:53:45.073Z,29.23
2018-12-23T11:56:19.384Z,29.73
2018-12-23T11:58:53.813Z,26.50
2018-12-23T12:01:28.213Z,24.33
2018-12-23T12:04:09.304Z,26.63
2018-12-23T12:06:43.542Z,22.47
2018-12-23T12:09:17.797Z,30.73
2018-12-23T12:11:52.107Z,32.10
2018-12-23T12:14:26.481Z,25.40
2018-12-23T12:17:00.854Z,25.30
2018-12-23T12:19:48.046Z,21.43
2018-12-23T12:22:23.664Z,37.43
2018-12-23T12:24:58.055Z,25.40
2018-12-23T12:27:32.466Z,35.80
2018-12-23T12:30:07.020Z,26.13
2018-12-23T12:32:41.473Z,30.83
2018-12-23T12:35:16.010Z,21.23
2018-12-23T12:37:50.366Z,18.63
2018-12-23T12:40:24.769Z,17.13
2018-12-23T12:42:59.137Z,30.47
2018-12-23T12:45:35.037Z,22.07
2018-12-23T12:48:09.318Z,31.90
2018-12-23T12:50:43.796Z,31.53
2018-12-23T12:53:18.078Z,22.77
2018-12-23T12:55:52.477Z,24.47
2018-12-23T12:58:26.977Z,18.83
2018-12-23T13:01:01.302Z,15.63
2018-12-23T13:03:36.044Z,16.20
2018-12-23T13:06:10.613Z,14.10
2018-12-23T13:08:45.136Z,22.60
2018-12-23T13:11:19.616Z,15.90
2018-12-23T13:13:54.902Z,15.57
2018-12-23T13:16:29.184Z,17.03
2018-12-23T13:19:03.533Z,17.67
2018-12-23T13:21:37.745Z,20.83
2018-12-23T13:24:12.350Z,19.47
2018-12-23T13:26:46.569Z,13.30
2018-12-23T13:29:21.015Z,20.73
2018-12-23T13:31:55.169Z,19.83
2018-12-23T13:34:29.546Z,24.37
2018-12-23T13:37:04.118Z,23.47
2018-12-23T13:39:39.293Z,16.03
2018-12-23T13:43:24.167Z,14.27
2018-12-23T13:46:11.544Z,14.87
2018-12-23T13:49:01.470Z,13.43
2018-12-23T13:51:46.079Z,17.17
2018-12-23T13:54:32.093Z,13.00
2018-12-23T13:57:24.947Z,15.90
2018-12-23T14:00:09.905Z,26.07
2018-12-23T14:02:54.349Z,16.33
2018-12-23T14:06:00.613Z,16.80
2018-12-23T14:08:59.282Z,16.40
2018-12-23T14:11:47.206Z,16.83
2018-12-23T14:14:21.510Z,19.43
2018-12-23T14:16:55.997Z,14.37
2018-12-23T14:19:30.206Z,16.73
2018-12-23T14:22:04.666Z,13.40
2018-12-23T14:24:39.189Z,14.10
2018-12-23T14:27:13.538Z,12.60
2018-12-23T14:33:24.727Z,17.70
2018-12-23T14:36:25.513Z,9.80
2018-12-23T14:39:28.584Z,9.40
2018-12-23T14:42:29.582Z,7.40
2018-12-23T14:52:06.164Z,7.53
2018-12-23T14:58:31.998Z,8.80
2018-12-23T15:01:32.631Z,11.47
2018-12-23T15:04:34.042Z,8.60
2018-12-23T15:07:35.895Z,12.23
2018-12-23T15:10:37.639Z,10.00
2018-12-23T15:13:58.750Z,10.40
2018-12-23T15:20:28.284Z,9.60
2018-12-23T15:30:36.779Z,9.27
2018-12-23T15:37:27.603Z,10.53
2018-12-23T15:40:36.095Z,13.00
2018-12-23T15:46:26.145Z,14.43
2018-12-23T15:49:46.307Z,12.70
2018-12-23T15:52:48.219Z,17.10
2018-12-23T16:02:10.668Z,14.40
2018-12-23T16:05:12.757Z,16.30
2018-12-23T16:08:14.435Z,16.63
2018-12-23T16:11:38.030Z,14.20
2018-12-23T16:14:39.684Z,17.20
2018-12-23T16:24:05.003Z,20.63
2018-12-23T16:27:06.617Z,16.27
2018-12-23T16:30:08.670Z,16.93
2018-12-23T16:36:24.504Z,18.33
2018-12-23T16:39:33.650Z,22.03
2018-12-23T16:42:42.463Z,19.70
2018-12-23T16:48:40.931Z,28.10
2018-12-23T16:51:49.756Z,20.07
2018-12-23T16:54:58.590Z,24.77
2018-12-23T16:58:07.510Z,17.73
2018-12-23T17:01:15.143Z,24.27
2018-12-23T17:04:23.976Z,17.83
2018-12-23T17:07:51.127Z,26.70
2018-12-23T17:11:19.231Z,25.23
2018-12-23T17:14:28.080Z,30.63
2018-12-23T17:17:54.699Z,29.40
2018-12-23T17:20:56.111Z,25.63
2018-12-23T17:24:07.637Z,25.13
2018-12-23T17:30:31.727Z,24.63
2018-12-23T17:36:25.142Z,23.60
2018-12-23T17:39:27.107Z,26.73
2018-12-23T17:42:27.442Z,26.70
2018-12-23T17:54:23.192Z,26.10
2018-12-23T17:57:24.803Z,24.53
2018-12-23T18:00:36.890Z,27.20
2018-12-23T18:07:21.035Z,31.10
2018-12-23T18:10:25.129Z,28.33
2018-12-23T18:13:28.325Z,25.47
2018-12-23T18:16:30.148Z,27.50
2018-12-23T18:19:31.643Z,28.97
2018-12-23T18:29:09.759Z,28.00
2018-12-23T18:32:11.699Z,29.70
2018-12-23T18:38:37.627Z,26.40
2018-12-23T18:41:40.191Z,28.70
2018-12-23T18:44:42.131Z,25.20
2018-12-23T18:47:43.899Z,28.00
2018-12-23T18:50:45.443Z,30.47
2018-12-23T18:53:54.735Z,28.97
2018-12-23T18:57:06.276Z,31.73
2018-12-23T19:00:15.155Z,27.70
2018-12-23T19:03:24.285Z,26.63
2018-12-23T19:09:21.351Z,26.80
2018-12-23T19:16:41.112Z,27.83
2018-12-23T19:23:09.402Z,18.23
2018-12-23T19:29:51.146Z,14.33
2018-12-23T19:32:52.794Z,13.83
2018-12-23T19:35:54.530Z,10.70
2018-12-23T19:42:06.444Z,8.40
2018-12-23T19:45:07.864Z,6.83
2018-12-23T19:48:10.095Z,7.73
2018-12-23T19:51:10.347Z,8.37
2018-12-23T19:57:37.896Z,8.20
2018-12-23T20:00:39.179Z,8.97
2018-12-23T20:03:59.682Z,8.57
2018-12-23T20:07:06.391Z,10.23
2018-12-23T20:13:34.023Z,6.67
2018-12-23T20:16:35.351Z,6.40
2018-12-23T20:19:37.307Z,10.93
2018-12-23T20:26:17.884Z,6.83
2018-12-23T20:29:19.302Z,7.37
2018-12-23T20:32:20.991Z,10.00
2018-12-23T20:35:22.451Z,9.80
2018-12-23T20:41:46.150Z,6.77
2018-12-23T20:44:47.724Z,6.57
2018-12-23T20:47:49.141Z,6.23
2018-12-23T20:50:49.851Z,7.07
2018-12-23T20:53:51.340Z,6.80
2018-12-23T20:56:52.020Z,7.80
2018-12-23T20:59:53.767Z,8.00
2018-12-23T21:02:55.142Z,7.27
2018-12-23T21:05:57.340Z,7.57
2018-12-23T21:12:07.053Z,6.40
2018-12-23T21:15:08.203Z,7.03
2018-12-23T21:21:36.127Z,6.23
2018-12-23T21:25:10.978Z,5.83
2018-12-23T21:28:33.788Z,7.10
2018-12-23T21:32:06.975Z,10.23
2018-12-23T21:35:34.886Z,9.50
2018-12-23T21:39:03.140Z,7.03
2018-12-23T21:42:36.123Z,11.93
2018-12-23T21:46:04.349Z,7.30
2018-12-23T21:49:32.290Z,5.57
2018-12-23T21:53:00.282Z,7.80
2018-12-23T21:56:28.199Z,7.50
2018-12-23T21:59:54.617Z,7.40
2018-12-23T22:03:22.597Z,7.90
2018-12-23T22:06:50.864Z,5.80
2018-12-23T22:10:19.103Z,7.30
2018-12-23T22:13:28.350Z,8.90
2018-12-23T22:16:37.415Z,7.90
2018-12-23T22:19:38.198Z,7.90
2018-12-23T22:22:39.747Z,9.07
2018-12-23T22:29:07.172Z,18.33
2018-12-23T22:35:48.278Z,10.47
2018-12-23T22:38:49.318Z,12.17
2018-12-23T22:41:50.607Z,9.40
2018-12-23T22:44:52.402Z,8.50
2018-12-23T22:47:55.989Z,11.93
2018-12-23T22:51:02.686Z,11.63
2018-12-23T22:54:04.240Z,11.37
2018-12-23T22:57:06.488Z,11.20
2018-12-23T23:00:08.219Z,9.63
2018-12-23T23:03:10.236Z,9.80
2018-12-23T23:06:12.099Z,8.87
2018-12-23T23:12:36.624Z,12.70
2018-12-23T23:15:37.139Z,8.07
2018-12-23T23:18:42.059Z,9.60
2018-12-23T23:24:54.046Z,10.40
2018-12-23T23:27:55.311Z,11.93
2018-12-23T23:30:57.115Z,8.07
2018-12-23T23:33:57.803Z,8.97
2018-12-23T23:36:59.052Z,7.03
2018-12-23T23:40:00.943Z,7.77
2018-12-23T23:43:02.675Z,6.63
2018-12-23T23:46:04.201Z,7.60
2018-12-23T23:49:05.729Z,7.00
2018-12-23T23:52:07.131Z,6.87
2018-12-23T23:55:08.799Z,5.63
2018-12-23T23:58:10.181Z,7.40
